Bandido — WDC5350 — position and weather

sailwx.info

Track history (hours):
 
Tides and Currents Weather Stations Pressure Air Temp Water Temp Dewpoint Dewpoint Depression Visibility Wind Speed Wind Dir Waves Ship Positions

Bandido

Owner: Seidner, Murrey, Raleigh, NC. More information available from US FCC via Universal Licensing System.

Last reported at 2015-Nov-13 21:25 UTC. Time now 2016-Feb-09 15:55 UTC.
Position N 32°01' W 117°00'.
Warning: this ship's position is months out of date.

Length 42 m; draft 2 m.

Type: Pleasure craft. MMSI: 367039780.

Date/timePositionNaut miles runAvg speedWind from/ knotsBaromVisibWave heightAir tempDewpointWater temp
2015-Nov-13 21:25N 32°01' W 117°00'1011.1
2015-Nov-13 20:33N 32°10' W 117°04'1111.5
2015-Nov-13 19:33N 32°21' W 117°07'1111.4
2015-Nov-13 18:33N 32°32' W 117°11'10 9.7
2015-Nov-13 17:34N 32°41' W 117°14'3 2.3
2015-Nov-13 16:28N 32°43' W 117°13'0 0.0
2015-Nov-13 15:31N 32°44' W 117°13'0 0.0
2015-Nov-13 14:31N 32°44' W 117°13'0 0.0
2015-Nov-13 13:31N 32°44' W 117°13'0 0.0
2015-Nov-13 12:31N 32°43' W 117°13'0 0.0
2015-Nov-13 11:31N 32°43' W 117°13'0 0.0
2015-Nov-13 10:31N 32°43' W 117°13'0 0.0
2015-Nov-13 09:31N 32°43' W 117°13'0 0.0
2015-Nov-13 08:31N 32°44' W 117°13'0 0.0
2015-Nov-13 07:31N 32°44' W 117°13'0 0.0
2015-Nov-13 06:31N 32°43' W 117°13'5 4.8
2015-Nov-13 05:29N 32°39' W 117°15'1011.0
2015-Nov-13 04:33N 32°47' W 117°23'1111.1
2015-Nov-13 03:33N 32°56' W 117°29'1111.1
2015-Nov-13 02:33N 33°05' W 117°37'1111.3
2015-Nov-13 01:33N 33°15' W 117°45'1111.5
2015-Nov-13 00:33N 33°24' W 117°52'1111.4
2015-Nov-12 23:33N 33°34' W 117°60'1110.8
2015-Nov-12 22:33N 33°43' W 118°06'2 1.7
2015-Nov-12 21:33N 33°43' W 118°04'0 0.0
2015-Nov-12 20:33N 33°43' W 118°04'0 0.0
2015-Nov-12 19:33N 33°43' W 118°04'0 0.0
2015-Nov-12 18:33N 33°43' W 118°04'0 0.0
2015-Nov-12 17:33N 33°43' W 118°04'0 0.0
2015-Nov-12 16:33N 33°43' W 118°04'0 0.0
2015-Nov-12 15:33N 33°43' W 118°04'0 0.0
2015-Nov-12 14:30N 33°43' W 118°04'0 0.0
2015-Nov-12 13:33N 33°43' W 118°04'0 0.0
2015-Nov-12 12:33N 33°43' W 118°04'0 0.0
2015-Nov-12 11:30N 33°43' W 118°04'0 0.0
2015-Nov-12 08:18N 33°43' W 118°04'0 0.0
2015-Nov-12 07:33N 33°43' W 118°04'0 0.0
2015-Nov-12 06:33N 33°43' W 118°04'0 0.0
2015-Nov-12 01:33N 33°43' W 118°04'0 0.0
2015-Nov-12 00:33N 33°43' W 118°04'0 0.0
2015-Nov-11 23:33N 33°43' W 118°04'1 1.4
2015-Nov-11 22:33N 33°43' W 118°06'  
2015-Nov-09 05:26N 33°43' W 118°04'0 0.0
2015-Nov-09 04:11N 33°43' W 118°04'0 0.0
2015-Nov-09 03:29N 33°43' W 118°04'0 0.0
2015-Nov-09 02:32N 33°43' W 118°04'0 0.0
2015-Nov-09 01:32N 33°43' W 118°04'0 0.0
2015-Nov-09 00:29N 33°43' W 118°04'0 0.0
2015-Nov-08 23:32N 33°43' W 118°04'0 0.0
2015-Nov-08 22:32N 33°43' W 118°04'0 0.0
2015-Nov-08 20:29N 33°43' W 118°04'0 0.0
2015-Nov-08 19:29N 33°43' W 118°04'0 0.0
2015-Nov-08 08:29N 33°43' W 118°04'0 0.0
2015-Nov-08 07:29N 33°43' W 118°04'0 0.0
2015-Nov-08 04:05N 33°43' W 118°04'0 0.0
2015-Nov-08 02:29N 33°43' W 118°04'0 0.0
2015-Nov-08 01:23N 33°43' W 118°04'0 0.0
2015-Nov-08 00:29N 33°43' W 118°04'0 0.0
2015-Nov-07 23:32N 33°43' W 118°04'0 0.0
2015-Nov-07 22:23N 33°43' W 118°04'0 0.0
2015-Nov-07 21:29N 33°43' W 118°04'0 0.0
2015-Nov-07 20:32N 33°43' W 118°04'0 0.0
2015-Nov-07 19:11N 33°43' W 118°04'0 0.0
2015-Nov-07 18:11N 33°43' W 118°04'0 0.0
2015-Nov-07 17:29N 33°43' W 118°04'0 0.0
2015-Nov-07 04:29N 33°43' W 118°04'0 0.0
2015-Nov-07 03:32N 33°43' W 118°04'0 0.0
2015-Nov-07 02:32N 33°43' W 118°04'0 0.0
2015-Nov-07 01:14N 33°43' W 118°04'0 0.0
2015-Nov-07 00:32N 33°43' W 118°04'0 0.0
2015-Nov-06 23:32N 33°43' W 118°04'0 0.0
2015-Nov-06 22:29N 33°43' W 118°04'0 0.0
2015-Nov-06 21:32N 33°43' W 118°04'0 0.0
2015-Nov-06 12:32N 33°43' W 118°04'0 0.0
2015-Nov-06 11:32N 33°43' W 118°04'  
Track history (hours):
 
Tides and Currents Weather Stations Pressure Air Temp Water Temp Dewpoint Dewpoint Depression Visibility Wind Speed Wind Dir Waves Ship Positions

Bandido

Owner: Seidner, Murrey, Raleigh, NC. More information available from US FCC via Universal Licensing System.

Last reported at 2015-Nov-13 21:25 UTC. Time now 2016-Feb-09 15:55 UTC.
Position N 32°01' W 117°00'.
Warning: this ship's position is months out of date.

Length 42 m; draft 2 m.

Type: Pleasure craft. MMSI: 367039780.

Date/timePositionNaut miles runAvg speedWind from/ knotsBaromVisibWave heightAir tempDewpointWater temp
2015-Nov-13 21:25N 32°01' W 117°00'1011.1
2015-Nov-13 20:33N 32°10' W 117°04'1111.5
2015-Nov-13 19:33N 32°21' W 117°07'1111.4
2015-Nov-13 18:33N 32°32' W 117°11'10 9.7
2015-Nov-13 17:34N 32°41' W 117°14'3 2.3
2015-Nov-13 16:28N 32°43' W 117°13'0 0.0
2015-Nov-13 15:31N 32°44' W 117°13'0 0.0
2015-Nov-13 14:31N 32°44' W 117°13'0 0.0
2015-Nov-13 13:31N 32°44' W 117°13'0 0.0
2015-Nov-13 12:31N 32°43' W 117°13'0 0.0
2015-Nov-13 11:31N 32°43' W 117°13'0 0.0
2015-Nov-13 10:31N 32°43' W 117°13'0 0.0
2015-Nov-13 09:31N 32°43' W 117°13'0 0.0
2015-Nov-13 08:31N 32°44' W 117°13'0 0.0
2015-Nov-13 07:31N 32°44' W 117°13'0 0.0
2015-Nov-13 06:31N 32°43' W 117°13'5 4.8
2015-Nov-13 05:29N 32°39' W 117°15'1011.0
2015-Nov-13 04:33N 32°47' W 117°23'1111.1
2015-Nov-13 03:33N 32°56' W 117°29'1111.1
2015-Nov-13 02:33N 33°05' W 117°37'1111.3
2015-Nov-13 01:33N 33°15' W 117°45'1111.5
2015-Nov-13 00:33N 33°24' W 117°52'1111.4
2015-Nov-12 23:33N 33°34' W 117°60'1110.8
2015-Nov-12 22:33N 33°43' W 118°06'2 1.7
2015-Nov-12 21:33N 33°43' W 118°04'0 0.0
2015-Nov-12 20:33N 33°43' W 118°04'0 0.0
2015-Nov-12 19:33N 33°43' W 118°04'0 0.0
2015-Nov-12 18:33N 33°43' W 118°04'0 0.0
2015-Nov-12 17:33N 33°43' W 118°04'0 0.0
2015-Nov-12 16:33N 33°43' W 118°04'0 0.0
2015-Nov-12 15:33N 33°43' W 118°04'0 0.0
2015-Nov-12 14:30N 33°43' W 118°04'0 0.0
2015-Nov-12 13:33N 33°43' W 118°04'0 0.0
2015-Nov-12 12:33N 33°43' W 118°04'0 0.0
2015-Nov-12 11:30N 33°43' W 118°04'0 0.0
2015-Nov-12 08:18N 33°43' W 118°04'0 0.0
2015-Nov-12 07:33N 33°43' W 118°04'0 0.0
2015-Nov-12 06:33N 33°43' W 118°04'0 0.0
2015-Nov-12 01:33N 33°43' W 118°04'0 0.0
2015-Nov-12 00:33N 33°43' W 118°04'0 0.0
2015-Nov-11 23:33N 33°43' W 118°04'1 1.4
2015-Nov-11 22:33N 33°43' W 118°06'  
2015-Nov-09 05:26N 33°43' W 118°04'0 0.0
2015-Nov-09 04:11N 33°43' W 118°04'0 0.0
2015-Nov-09 03:29N 33°43' W 118°04'0 0.0
2015-Nov-09 02:32N 33°43' W 118°04'0 0.0
2015-Nov-09 01:32N 33°43' W 118°04'0 0.0
2015-Nov-09 00:29N 33°43' W 118°04'0 0.0
2015-Nov-08 23:32N 33°43' W 118°04'0 0.0
2015-Nov-08 22:32N 33°43' W 118°04'0 0.0
2015-Nov-08 20:29N 33°43' W 118°04'0 0.0
2015-Nov-08 19:29N 33°43' W 118°04'0 0.0
2015-Nov-08 08:29N 33°43' W 118°04'0 0.0
2015-Nov-08 07:29N 33°43' W 118°04'0 0.0
2015-Nov-08 04:05N 33°43' W 118°04'0 0.0
2015-Nov-08 02:29N 33°43' W 118°04'0 0.0
2015-Nov-08 01:23N 33°43' W 118°04'0 0.0
2015-Nov-08 00:29N 33°43' W 118°04'0 0.0
2015-Nov-07 23:32N 33°43' W 118°04'0 0.0
2015-Nov-07 22:23N 33°43' W 118°04'0 0.0
2015-Nov-07 21:29N 33°43' W 118°04'0 0.0
2015-Nov-07 20:32N 33°43' W 118°04'0 0.0
2015-Nov-07 19:11N 33°43' W 118°04'0 0.0
2015-Nov-07 18:11N 33°43' W 118°04'0 0.0
2015-Nov-07 17:29N 33°43' W 118°04'0 0.0
2015-Nov-07 04:29N 33°43' W 118°04'0 0.0
2015-Nov-07 03:32N 33°43' W 118°04'0 0.0
2015-Nov-07 02:32N 33°43' W 118°04'0 0.0
2015-Nov-07 01:14N 33°43' W 118°04'0 0.0
2015-Nov-07 00:32N 33°43' W 118°04'0 0.0
2015-Nov-06 23:32N 33°43' W 118°04'0 0.0
2015-Nov-06 22:29N 33°43' W 118°04'0 0.0
2015-Nov-06 21:32N 33°43' W 118°04'0 0.0
2015-Nov-06 12:32N 33°43' W 118°04'0 0.0
2015-Nov-06 11:32N 33°43' W 118°04'  

Dump ship's entire track history